Murrysville, Pennsylvania
Current Conditions -  °F | °C
As of 4:53 AM on Friday 28 Nov 2014 (Local Time) from KAGC Reporting Station
Light Snow Light Snow  
Wind Chill: -7°   Ceiling: 2400
Heat Index: -3°   Visibility: 3mi
Dew Point: -7°   Wind: 6mph
Humidity: 78%   Direction: 320°NW
Pressure: 30.24"   Gusts: NA
Location:  40.43°N, 79.7°W
Report Text: KAGC 280953Z 32005KT 3SM -SN SCT016 OVC024 M03/M07 A3024 RMK AO2 SNB0854 SLP262 P0000 T10331067
Loading
Personal Weather Stations






























Interactive Weather Map New forecast layout! Learn more

10-Day Weather Forecast

Advertisements
Track Severe Weather on mobile